Pagrindinis puslapis
METAR-TAF:

METAR-TAF

Oro uostai :

Lapenranta, Suomija

platuma: 61-02-45N, ilguma: 028-08-55E, Aukštis: 106 m

Dabartinis oras

Ataskaita buvo paskelbta 34 minutes, ne 10:50 UTC
Vėjas 14 kt iš Pietvakarių su gūsio iki 27 kt, svyruoja nuo Pietų/Pietvakarių ir Vakarų
Temperatūra 4°C
Drėgmė 93%
Slėgis 970 hPa
Matomumas 10 km arba daugiau
Apsiniaukę ne aukštis 900 ft
lietus

METAR: EFLP 221050Z AUTO 23014G27KT 200V260 9999 -RA OVC009 04/03 Q0970

Laikas: 14:24 (11:24 UTC)


TAF: trūkstamas

Orai ataskaitas ir orų prognozės (METAR, TAF).

turimą stotys yra geltonos ir raudonos taškus žemėlapyje.

Perkelti pele per norėdami pamatyti stoties vardą.

Tada spustelėkite, norėdami matyti oro stebėjimo ir prognozės.

Norėdami pakeisti žemėlapį: spustelėkite ant žalios mygtukų su juodo kryžiaus žemyn,; žalią mygtuką su brūkšneliu, jei norite nutolinti; arba žalių rodyklių gretimoms žemėlapius.


METAR-TAF: